Markyate, United Kingdom
Current Conditions -  °F | °C
As of 6:50 PM on Thursday 23 Oct 2014 (Local Time) from EGGW Reporting Station
Broken Clouds Broken Clouds  
Wind Chill: 57°   Ceiling: 3800
Heat Index: 57°   Visibility: 6mi
Dew Point: 55°   Wind: 10mph
Humidity: 94%   Direction: 200°SSW
Pressure: 30"   Gusts: NA
Location:  51.84°N, 0.46°W
Report Text: EGGW 231750Z 20009KT 170V230 9999 BKN038 14/13 Q1016
Loading
Personal Weather Stations






























Interactive Weather Map
Tropical Storm Tracking
New forecast layout! Learn more

10-Day Weather Forecast

Advertisements
Track Severe Weather on mobile